This is the latest recevied weather packets stored in our database for station/object OM8AGG-10. If no packets are shown the sender has not sent any weather packets the latest 10 day(s).
| Time | Temp. | Humidity | Pressure | Rain* | Wind** | Luminosity | Snow |
|---|---|---|---|---|---|---|---|
| 1788348474 | 29.44° C | 29% | 1022.6 hPa | - | - | - | - |
| 1788347574 | 27.78° C | 30% | 1022.8 hPa | - | - | - | - |
| 1788346673 | 26.11° C | 36% | 1022.8 hPa | - | - | - | - |
| 1788344872 | 25° C | 34% | 1023.2 hPa | - | - | - | - |
| 1788343972 | 25.56° C | 37% | 1023.3 hPa | - | - | - | - |
| 1788343072 | 26.11° C | 33% | 1023.3 hPa | - | - | - | - |
| 1788341272 | 25° C | 35% | 1023.3 hPa | - | - | - | - |
| 1788340372 | 25° C | 38% | 1023.3 hPa | - | - | - | - |
| 1788339471 | 25.56° C | 37% | 1023.4 hPa | - | - | - | - |
| 1788338571 | 23.89° C | 40% | 1023.4 hPa | - | - | - | - |
| 1788337671 | 25.56° C | 38% | 1023.5 hPa | - | - | - | - |
| 1788336771 | 24.44° C | 43% | 1023.6 hPa | - | - | - | - |
| 1788335871 | 22.78° C | 45% | 1023.8 hPa | - | - | - | - |
| 1788334971 | 22.78° C | 48% | 1023.6 hPa | - | - | - | - |
| 1788334070 | 21.67° C | 49% | 1023.8 hPa | - | - | - | - |
| 1788333170 | 21.11° C | 53% | 1023.7 hPa | - | - | - | - |
| 1788332270 | 20° C | 55% | 1023.5 hPa | - | - | - | - |
| 1788331370 | 19.44° C | 59% | 1023.6 hPa | - | - | - | - |
| 1788330470 | 18.33° C | 63% | 1023.7 hPa | - | - | - | - |
| 1788329570 | 17.22° C | 67% | 1023.6 hPa | - | - | - | - |
| 1788328670 | 15.56° C | 74% | 1023.5 hPa | - | - | - | - |
| 1788327769 | 14.44° C | 83% | 1023.6 hPa | - | - | - | - |
| 1788326869 | 12.22° C | 93% | 1023.6 hPa | - | - | - | - |
| 1788325069 | 10.56° C | 97% | 1023.6 hPa | - | - | - | - |
| 1788301666 | 16.67° C | 61% | 1022.1 hPa | - | - | - | - |
* Rain since midnight (hover to see other rain measurements)
** Current wind speed in m/s (hover to see current wind gust speed)